Terminal Aerodrome Forecast
Issued by NWS

Home | Current Version | Previous Version | Text Only | Print | Product List | Glossary On
Versions: 1 2 3 4 5 6 7 8 9 10 11 12 13 14 15 16 17 18
000
FTUS44 KMAF 281700
TAFINK
TAF
KINK 281732Z 2818/2918 VRB04KT P6SM SCT250
     FM281900 09011G20KT P6SM SCT100
     FM290100 12009KT P6SM FEW100 SCT150 SCT250=

USA.gov is the U.S. government's official web portal to all federal, state and local government web resources and services.